Time;durP1;ratioP1;P1;durP2;ratioP2;P2;SDS_P1;SDS_P2;PMS_P1;PMS_P2;Temp;Humidity;BMP_temperature;BMP_pressure;BME280_temperature;BME280_humidity;BME280_pressure;Samples;Min_cycle;Max_cycle;Signal;HPM_P1;HPM_P2
2021/10/28 00:12:56;;;;;;;9.27;7.90;;;10.20;80.80;;;;;;5038086;28;20704;-47
2021/10/28 00:15:31;;;;;;;7.80;7.00;;;10.10;80.90;;;;;;5024135;28;20580;-47
2021/10/28 00:20:34;;;;;;;7.77;6.00;;;10.50;93.00;;;;;;5022447;28;20731;-47
2021/10/28 00:23:02;;;;;;;7.00;5.87;;;11.00;96.00;;;;;;5038491;28;20528;-47
2021/10/28 00:25:28;;;;;;;9.67;8.43;;;11.50;96.80;;;;;;5037959;28;20440;-47
2021/10/28 00:27:54;;;;;;;11.47;10.13;;;11.90;95.20;;;;;;5088850;28;20973;-47
2021/10/28 00:30:20;;;;;;;12.17;10.80;;;12.00;91.80;;;;;;5120444;28;20430;-47
2021/10/28 00:32:46;;;;;;;12.30;11.20;;;11.90;90.60;;;;;;5119928;28;20422;-47
2021/10/28 00:35:13;;;;;;;13.13;11.73;;;11.70;89.30;;;;;;5120328;28;20524;-47
2021/10/28 00:37:39;;;;;;;18.70;13.30;;;11.50;88.00;;;;;;5101759;28;20748;-47
2021/10/28 00:40:08;;;;;;;15.10;13.50;;;11.40;87.50;;;;;;5120338;28;20463;-47
2021/10/28 00:42:34;;;;;;;16.93;14.70;;;11.20;87.20;;;;;;5102299;28;20697;-47
2021/10/28 00:45:00;;;;;;;16.40;14.73;;;11.00;87.00;;;;;;5119825;28;20421;-47
2021/10/28 00:47:26;;;;;;;15.80;14.20;;;10.80;87.00;;;;;;5119884;28;20414;-47
2021/10/28 00:49:52;;;;;;;15.07;13.63;;;10.70;87.10;;;;;;5119749;28;21145;-47
2021/10/28 00:52:18;;;;;;;16.73;15.13;;;10.60;87.10;;;;;;5120064;28;20521;-47
2021/10/28 00:54:44;;;;;;;17.70;16.00;;;10.50;87.20;;;;;;5102026;28;20512;-47
2021/10/28 00:57:10;;;;;;;20.13;16.30;;;10.40;87.30;;;;;;5101469;28;20432;-47
2021/10/28 00:59:36;;;;;;;16.53;14.20;;;10.30;87.30;;;;;;5119646;28;20479;-46
2021/10/28 01:02:03;;;;;;;15.80;14.20;;;10.20;87.10;;;;;;5119404;28;20223;-47
2021/10/28 01:04:28;;;;;;;16.20;13.80;;;10.10;86.90;;;;;;5119602;28;20426;-47
2021/10/28 01:06:54;;;;;;;14.53;13.00;;;10.10;86.90;;;;;;5101130;28;20410;-47
2021/10/28 01:09:22;;;;;;;17.40;14.13;;;10.00;86.70;;;;;;5118316;28;20222;-47
2021/10/28 01:11:49;;;;;;;18.00;15.77;;;9.90;88.00;;;;;;5101384;28;20430;-47
2021/10/28 01:14:15;;;;;;;16.50;14.77;;;9.90;88.10;;;;;;5118663;28;20430;-46
2021/10/28 01:16:40;;;;;;;19.67;17.60;;;9.80;88.20;;;;;;5117968;28;20424;-47
2021/10/28 01:19:06;;;;;;;17.70;15.03;;;9.80;88.50;;;;;;5117611;28;20212;-47
2021/10/28 01:21:32;;;;;;;17.70;15.80;;;9.80;88.90;;;;;;5117615;28;20189;-47
2021/10/28 01:23:57;;;;;;;19.27;16.47;;;9.70;89.00;;;;;;5117350;28;20877;-47
2021/10/28 01:26:23;;;;;;;18.47;16.60;;;9.70;89.10;;;;;;5117435;28;20188;-47
2021/10/28 01:28:54;;;;;;;18.20;16.40;;;9.70;89.20;;;;;;5117377;28;20246;-46
2021/10/28 01:31:21;;;;;;;18.67;16.77;;;9.60;89.20;;;;;;5119104;28;20426;-46
2021/10/28 01:33:47;;;;;;;18.87;16.87;;;9.60;89.30;;;;;;5118974;28;20430;-47
2021/10/28 01:36:13;;;;;;;19.63;17.57;;;9.60;89.60;;;;;;5119296;28;20487;-47
2021/10/28 01:38:41;;;;;;;19.50;17.43;;;9.60;89.60;;;;;;5118711;28;20495;-46
2021/10/28 01:41:07;;;;;;;20.30;16.63;;;9.60;89.70;;;;;;5118699;28;20256;-47
2021/10/28 01:43:34;;;;;;;16.50;14.83;;;9.50;89.70;;;;;;5119134;28;20406;-46
2021/10/28 01:46:00;;;;;;;19.53;17.60;;;9.50;89.80;;;;;;5100980;28;20188;-47
2021/10/28 01:48:26;;;;;;;19.53;17.43;;;9.50;90.00;;;;;;5118869;28;20476;-47
2021/10/28 01:50:52;;;;;;;20.93;18.67;;;9.50;90.00;;;;;;5118770;28;20504;-47
2021/10/28 01:53:18;;;;;;;19.33;16.93;;;9.40;90.00;;;;;;5118694;28;20429;-47
2021/10/28 01:55:45;;;;;;;20.47;18.27;;;9.40;90.10;;;;;;5118936;28;20421;-46
2021/10/28 01:58:11;;;;;;;21.50;18.20;;;9.40;90.30;;;;;;5100453;28;20891;-47
2021/10/28 02:00:38;;;;;;;20.20;17.60;;;9.40;90.50;;;;;;5118588;28;20512;-47
2021/10/28 02:03:04;;;;;;;21.70;19.37;;;9.40;90.70;;;;;;5118788;28;20207;-47
2021/10/28 02:05:29;;;;;;;24.27;19.20;;;9.40;90.70;;;;;;5118949;28;20418;-47
2021/10/28 02:07:55;;;;;;;21.37;19.07;;;9.40;90.80;;;;;;5118662;28;20885;-46
2021/10/28 02:10:21;;;;;;;20.67;18.47;;;9.40;90.80;;;;;;5118958;28;20183;-47
2021/10/28 02:12:48;;;;;;;22.87;19.93;;;9.40;90.80;;;;;;5118630;28;20214;-47
2021/10/28 02:15:15;;;;;;;21.30;18.30;;;9.30;90.80;;;;;;5118307;28;20180;-47
2021/10/28 02:17:42;;;;;;;22.30;19.90;;;9.30;90.80;;;;;;5118254;28;20508;-47
2021/10/28 02:20:10;;;;;;;23.30;19.07;;;9.30;90.80;;;;;;5118312;28;20409;-47
2021/10/28 02:22:36;;;;;;;21.73;19.43;;;9.30;90.80;;;;;;5118670;28;20406;-47
2021/10/28 02:25:03;;;;;;;20.90;18.77;;;9.30;90.90;;;;;;5118566;28;20823;-47
2021/10/28 02:27:29;;;;;;;21.23;18.60;;;9.30;90.90;;;;;;5117733;28;20406;-47
2021/10/28 02:29:54;;;;;;;21.30;19.20;;;9.20;90.90;;;;;;5118555;28;20433;-47
2021/10/28 02:32:20;;;;;;;22.17;19.20;;;9.30;91.00;;;;;;5100130;28;20180;-47
2021/10/28 02:34:46;;;;;;;22.80;19.40;;;9.20;90.90;;;;;;5118056;28;20188;-47
2021/10/28 02:37:12;;;;;;;22.67;20.07;;;9.30;91.10;;;;;;5117990;28;20550;-47
2021/10/28 02:39:38;;;;;;;22.50;20.20;;;9.30;91.30;;;;;;5118932;28;20183;-47
2021/10/28 02:42:04;;;;;;;23.13;20.37;;;9.30;91.60;;;;;;5122042;28;20185;-47
2021/10/28 02:44:30;;;;;;;23.40;20.90;;;9.30;91.90;;;;;;5122332;28;20441;-47
2021/10/28 02:46:56;;;;;;;25.27;21.57;;;9.30;92.20;;;;;;5122598;28;20395;-47
2021/10/28 02:49:23;;;;;;;24.37;21.57;;;9.30;92.40;;;;;;5121959;28;20291;-47
2021/10/28 02:51:49;;;;;;;24.17;21.53;;;9.30;92.60;;;;;;5121776;28;20267;-47
2021/10/28 02:54:15;;;;;;;21.20;18.93;;;9.30;92.70;;;;;;5121869;28;20784;-47
2021/10/28 02:56:41;;;;;;;23.23;20.87;;;9.30;92.80;;;;;;5121717;28;20410;-47
2021/10/28 02:59:07;;;;;;;21.67;19.47;;;9.30;92.90;;;;;;5122191;28;20811;-47
2021/10/28 03:01:33;;;;;;;23.43;20.80;;;9.30;93.00;;;;;;5121952;28;20413;-47
2021/10/28 03:03:58;;;;;;;21.97;19.67;;;9.30;93.10;;;;;;5121824;28;20534;-47
2021/10/28 03:06:24;;;;;;;23.07;20.43;;;9.30;93.10;;;;;;5122056;28;20410;-47
2021/10/28 03:08:50;;;;;;;22.87;20.37;;;9.30;93.20;;;;;;5121367;28;20612;-47
2021/10/28 03:11:17;;;;;;;19.87;17.60;;;9.30;93.20;;;;;;5103518;28;20237;-47
2021/10/28 03:13:45;;;;;;;21.23;18.57;;;9.30;93.10;;;;;;5121603;28;20816;-47
2021/10/28 03:16:25;;;;;;;21.30;18.87;;;9.30;93.10;;;;;;5121348;28;20421;-47
2021/10/28 03:25:35;;;;;;;21.40;19.17;;;9.40;93.20;;;;;;5121186;28;20432;-47
2021/10/28 03:27:05;;;;;;;20.10;18.00;;;9.40;93.40;;;;;;5120695;28;20812;-47
2021/10/28 03:29:30;;;;;;;20.07;17.97;;;9.40;93.40;;;;;;5121579;28;20545;-46
2021/10/28 03:31:56;;;;;;;21.27;19.17;;;9.30;93.50;;;;;;5121061;28;20180;-47
2021/10/28 03:34:22;;;;;;;22.00;19.70;;;9.30;93.70;;;;;;5121535;28;20294;-46
2021/10/28 03:39:27;;;;;;;21.17;19.00;;;9.30;93.80;;;;;;5120817;28;20589;-47
2021/10/28 04:20:23;;;;;;;20.50;18.53;;;9.50;94.10;;;;;;5097585;28;20476;-45
2021/10/28 04:31:01;;;;;;;19.63;17.57;;;9.50;94.30;;;;;;5095806;28;20426;-44
2021/10/28 04:33:27;;;;;;;20.87;18.87;;;9.50;94.30;;;;;;5061683;28;20742;-44
2021/10/28 04:35:53;;;;;;;21.00;18.80;;;9.60;94.30;;;;;;5096691;28;20188;-47
2021/10/28 04:38:19;;;;;;;20.47;18.33;;;9.60;94.40;;;;;;5079257;28;20532;-43
2021/10/28 04:40:45;;;;;;;19.87;17.77;;;9.60;94.50;;;;;;5097884;28;20228;-45
2021/10/28 04:43:12;;;;;;;20.33;18.33;;;9.60;94.50;;;;;;5098159;28;20439;-44
2021/10/28 04:45:37;;;;;;;18.93;16.93;;;9.60;94.50;;;;;;5098990;28;20186;-44
2021/10/28 04:48:04;;;;;;;20.33;18.17;;;9.60;94.50;;;;;;5098602;28;21182;-46
2021/10/28 04:50:30;;;;;;;21.90;19.70;;;9.60;94.50;;;;;;5080928;28;20538;-44
2021/10/28 04:52:55;;;;;;;18.67;16.77;;;9.60;94.30;;;;;;5098820;28;20454;-46
2021/10/28 04:55:21;;;;;;;19.10;17.10;;;9.60;94.30;;;;;;5098402;28;20180;-46
2021/10/28 04:57:47;;;;;;;20.47;18.43;;;9.60;94.40;;;;;;5097685;28;20590;-45
2021/10/28 05:00:13;;;;;;;18.97;16.93;;;9.60;94.50;;;;;;5080265;28;20280;-43
2021/10/28 05:02:38;;;;;;;19.30;17.30;;;9.60;94.50;;;;;;5080247;28;20566;-43
2021/10/28 05:05:05;;;;;;;22.23;20.03;;;9.60;94.40;;;;;;5079058;28;20587;-44
2021/10/28 05:07:31;;;;;;;20.40;18.20;;;9.60;94.50;;;;;;5097793;28;20571;-45
2021/10/28 05:09:56;;;;;;;18.77;16.87;;;9.60;94.40;;;;;;5096142;28;20477;-46
2021/10/28 05:12:22;;;;;;;20.00;17.93;;;9.60;94.50;;;;;;5091729;28;20200;-45
2021/10/28 05:14:49;;;;;;;19.70;17.63;;;9.60;94.60;;;;;;5116242;28;20211;-44
2021/10/28 05:17:16;;;;;;;19.33;17.33;;;9.60;94.50;;;;;;5079729;28;20836;-45
2021/10/28 05:19:44;;;;;;;20.23;18.20;;;9.60;94.60;;;;;;5096009;28;20763;-46
2021/10/28 05:22:10;;;;;;;19.70;17.70;;;9.60;94.60;;;;;;5092214;28;20402;-44
2021/10/28 05:24:37;;;;;;;18.53;16.73;;;9.60;94.60;;;;;;5101751;28;20419;-46
2021/10/28 05:27:04;;;;;;;19.87;17.77;;;9.60;94.50;;;;;;5102298;28;20420;-43
2021/10/28 05:29:30;;;;;;;20.27;18.17;;;9.60;94.50;;;;;;5102977;28;20473;-44
2021/10/28 05:31:57;;;;;;;21.93;19.77;;;9.50;94.40;;;;;;5089355;28;20801;-43
2021/10/28 05:34:24;;;;;;;19.63;17.67;;;9.60;94.50;;;;;;5104890;28;20432;-44
2021/10/28 05:36:51;;;;;;;19.40;17.50;;;9.60;94.60;;;;;;5107814;28;20863;-44
2021/10/28 05:39:18;;;;;;;20.77;18.57;;;9.50;94.60;;;;;;5092243;28;20907;-45
2021/10/28 05:41:47;;;;;;;19.80;17.80;;;9.50;94.50;;;;;;5084411;28;20423;-45
2021/10/28 05:44:13;;;;;;;20.03;17.93;;;9.50;94.60;;;;;;5067334;28;20442;-45
2021/10/28 05:46:42;;;;;;;19.33;17.43;;;9.50;94.60;;;;;;5096043;28;20419;-44
2021/10/28 05:49:08;;;;;;;18.93;17.03;;;9.50;94.60;;;;;;5092457;28;21037;-44
2021/10/28 05:51:36;;;;;;;18.80;16.90;;;9.40;94.60;;;;;;5094566;28;20411;-46
2021/10/28 05:54:05;;;;;;;17.93;16.13;;;9.40;94.60;;;;;;5093964;28;20181;-45
2021/10/28 05:56:30;;;;;;;17.77;15.97;;;9.40;94.60;;;;;;5098540;28;20571;-43
2021/10/28 05:58:56;;;;;;;18.73;16.93;;;9.40;94.60;;;;;;5096602;28;20602;-45
2021/10/28 06:01:22;;;;;;;19.73;17.73;;;9.40;94.50;;;;;;5099824;28;20187;-43
2021/10/28 06:03:48;;;;;;;19.30;17.50;;;9.40;94.40;;;;;;5112623;28;20187;-44
2021/10/28 06:06:14;;;;;;;19.40;17.50;;;9.40;94.40;;;;;;5113487;28;20418;-43
2021/10/28 06:08:39;;;;;;;18.90;16.90;;;9.40;94.40;;;;;;5112965;28;20593;-45
2021/10/28 06:11:05;;;;;;;17.50;15.80;;;9.40;94.40;;;;;;5114440;28;20188;-45
2021/10/28 06:13:31;;;;;;;17.07;15.27;;;9.40;94.30;;;;;;5115302;28;20168;-43
2021/10/28 06:15:58;;;;;;;16.20;14.67;;;9.50;94.30;;;;;;5115030;28;20446;-43
2021/10/28 06:18:36;;;;;;;17.27;15.60;;;9.50;94.20;;;;;;5114072;28;20511;-45
2021/10/28 06:21:02;;;;;;;16.43;14.93;;;9.50;94.20;;;;;;5097686;28;20910;-46
2021/10/28 06:23:28;;;;;;;15.10;13.70;;;9.60;94.10;;;;;;5115131;28;20823;-45
2021/10/28 06:25:54;;;;;;;15.50;14.00;;;9.60;94.00;;;;;;5114821;28;20410;-44
2021/10/28 06:28:21;;;;;;;15.07;13.53;;;9.60;94.00;;;;;;5113941;28;20246;-44
2021/10/28 06:30:47;;;;;;;15.83;14.23;;;9.60;94.00;;;;;;5112880;28;20281;-44
2021/10/28 06:33:19;;;;;;;15.47;13.93;;;9.60;94.00;;;;;;5113303;28;20454;-45
2021/10/28 06:35:46;;;;;;;16.10;14.47;;;9.70;93.90;;;;;;5098394;28;20192;-45
2021/10/28 06:38:12;;;;;;;16.07;14.57;;;9.70;93.80;;;;;;5115432;28;20873;-45
2021/10/28 06:40:38;;;;;;;15.40;13.90;;;9.70;93.90;;;;;;5115806;28;20512;-45
2021/10/28 06:43:04;;;;;;;16.50;14.90;;;9.70;93.90;;;;;;5115161;28;20184;-47
2021/10/28 06:45:30;;;;;;;14.80;13.40;;;9.80;94.00;;;;;;5115345;28;20429;-44
2021/10/28 06:47:57;;;;;;;12.97;11.83;;;9.80;94.00;;;;;;5096004;28;20434;-46
2021/10/28 06:50:28;;;;;;;6.93;6.23;;;9.80;94.60;;;;;;5113788;28;20354;-43
2021/10/28 06:52:57;;;;;;;8.57;6.50;;;10.30;97.10;;;;;;5098442;28;20831;-44
2021/10/28 07:03:30;;;;;;;6.03;5.30;;;12.30;99.10;;;;;;5114930;28;20409;-43
2021/10/28 07:06:03;;;;;;;6.13;5.50;;;12.70;98.50;;;;;;5114837;28;20463;-44
2021/10/28 07:08:28;;;;;;;7.93;6.00;;;13.20;97.90;;;;;;5110299;28;21017;-44
2021/10/28 07:10:57;;;;;;;6.57;5.97;;;13.70;96.90;;;;;;5112764;28;20431;-44
2021/10/28 07:13:29;;;;;;;7.70;5.50;;;14.10;95.80;;;;;;5115614;28;20422;-42
2021/10/28 07:16:13;;;;;;;6.50;5.90;;;14.50;94.90;;;;;;5098531;28;20425;-44
2021/10/28 08:20:56;;;;;;;14.33;12.93;;;16.90;75.20;;;;;;5117213;28;20510;-43
2021/10/28 08:31:06;;;;;;;15.77;14.27;;;16.80;75.90;;;;;;5118039;28;20832;-45
2021/10/28 08:33:33;;;;;;;17.70;15.90;;;16.90;76.20;;;;;;5117993;28;20497;-45
2021/10/28 08:36:09;;;;;;;14.40;13.00;;;17.10;76.40;;;;;;5118517;28;20178;-43
2021/10/28 08:38:40;;;;;;;14.20;12.80;;;17.30;75.70;;;;;;5100698;28;20552;-44
2021/10/28 08:41:07;;;;;;;15.53;14.13;;;17.40;74.70;;;;;;5116408;28;20447;-44
2021/10/28 08:43:36;;;;;;;14.97;13.67;;;17.40;73.90;;;;;;5117012;28;20417;-44
2021/10/28 08:46:03;;;;;;;15.17;13.70;;;17.30;73.50;;;;;;5118461;28;20476;-43
2021/10/28 08:48:31;;;;;;;15.27;13.77;;;17.30;73.50;;;;;;5117437;28;20449;-44
2021/10/28 08:51:21;;;;;;;13.57;12.30;;;17.50;73.80;;;;;;5100092;28;20430;-47
2021/10/28 08:54:04;;;;;;;12.27;11.00;;;17.90;74.30;;;;;;5118090;28;20796;-46
2021/10/28 08:56:47;;;;;;;13.77;11.93;;;18.70;73.00;;;;;;5118363;28;20424;-45
2021/10/28 09:24:33;;;;;;;13.90;12.70;;;22.70;56.50;;;;;;5116442;28;20472;-44
2021/10/28 09:51:52;;;;;;;9.50;8.60;;;27.90;45.10;;;;;;5116945;28;20400;-45
2021/10/28 09:57:46;;;;;;;7.00;6.40;;;28.30;44.50;;;;;;5099357;28;20429;-47
2021/10/28 09:58:11;;;;;;;6.90;6.20;;;29.20;43.80;;;;;;5116016;28;20463;-46
2021/10/28 10:00:39;;;;;;;8.60;5.30;;;29.90;42.90;;;;;;5114272;28;20429;-48
2021/10/28 10:03:10;;;;;;;9.87;6.10;;;30.40;42.90;;;;;;5116756;28;20456;-47
2021/10/28 10:05:37;;;;;;;7.70;5.80;;;30.70;42.00;;;;;;5115325;28;20429;-46
2021/10/28 10:08:06;;;;;;;7.60;6.70;;;31.10;41.00;;;;;;5114837;28;20500;-47
2021/10/28 10:10:32;;;;;;;4.80;4.13;;;31.30;40.40;;;;;;5097196;28;20438;-46
2021/10/28 10:12:59;;;;;;;5.70;4.47;;;31.50;40.80;;;;;;5115484;28;20491;-47
2021/10/28 10:15:25;;;;;;;9.57;5.63;;;31.90;40.40;;;;;;5116197;28;20430;-44
2021/10/28 10:17:53;;;;;;;8.10;6.53;;;32.20;40.00;;;;;;5117464;28;20555;-41
2021/10/28 10:20:21;;;;;;;9.63;8.60;;;32.40;39.20;;;;;;5098182;28;20424;-41
2021/10/28 11:30:08;;;;;;;4.63;4.33;;;41.00;28.60;;;;;;5079954;28;20576;-43
2021/10/28 12:20:08;;;;;;;3.80;3.50;;;43.70;26.60;;;;;;5117789;28;20426;-45
2021/10/28 12:45:45;;;;;;;5.10;3.93;;;44.10;26.20;;;;;;5117504;28;20498;-43
2021/10/28 12:54:47;;;;;;;3.73;3.50;;;44.10;26.10;;;;;;5082663;28;20428;-40
2021/10/28 13:52:29;;;;;;;3.20;2.87;;;43.90;25.90;;;;;;5117230;28;20420;-43
2021/10/28 14:26:38;;;;;;;2.80;2.60;;;42.10;26.40;;;;;;5113399;28;20199;-43
2021/10/28 15:28:36;;;;;;;3.13;2.83;;;33.70;31.40;;;;;;5072399;28;1297190;-47
2021/10/28 15:36:09;;;;;;;3.77;3.40;;;32.90;31.90;;;;;;5118671;28;20395;-45
2021/10/28 15:52:35;;;;;;;3.60;3.30;;;30.20;33.70;;;;;;5117920;28;20410;-43
2021/10/28 16:21:55;;;;;;;4.50;4.10;;;24.80;41.00;;;;;;5108474;28;20432;-43
2021/10/28 16:24:30;;;;;;;4.33;3.93;;;24.50;41.50;;;;;;5105485;28;20777;-44
2021/10/28 16:26:59;;;;;;;4.60;4.20;;;24.30;41.90;;;;;;5092024;28;20447;-43
2021/10/28 16:29:26;;;;;;;4.93;4.53;;;24.00;42.20;;;;;;5087486;28;20479;-44
2021/10/28 16:31:55;;;;;;;4.90;4.43;;;23.80;42.60;;;;;;5090845;28;20713;-44
2021/10/28 16:34:23;;;;;;;4.73;4.33;;;23.70;43.00;;;;;;5094605;28;20423;-43
2021/10/28 16:36:50;;;;;;;5.13;4.63;;;23.50;43.20;;;;;;5091447;28;20500;-43
2021/10/28 16:39:17;;;;;;;5.13;4.73;;;23.30;43.50;;;;;;5094964;28;20433;-42
2021/10/28 16:41:49;;;;;;;4.83;4.43;;;23.10;43.60;;;;;;5097787;28;20448;-42
2021/10/28 16:44:16;;;;;;;5.10;4.60;;;23.00;43.80;;;;;;5096252;28;20415;-42
2021/10/28 16:46:44;;;;;;;5.73;5.23;;;22.80;44.00;;;;;;5096223;28;20427;-49
2021/10/28 16:49:12;;;;;;;6.50;5.73;;;22.70;44.30;;;;;;5095659;28;20462;-49
2021/10/28 16:51:39;;;;;;;6.17;5.57;;;22.50;44.00;;;;;;5096673;28;20427;-49
2021/10/28 16:54:06;;;;;;;6.07;5.57;;;22.40;44.10;;;;;;5093577;28;20430;-49
2021/10/28 16:56:32;;;;;;;6.40;5.80;;;22.30;44.20;;;;;;5070405;28;20438;-49
2021/10/28 16:58:58;;;;;;;5.83;5.30;;;22.10;44.50;;;;;;5083085;28;20818;-48
2021/10/28 17:01:25;;;;;;;5.33;4.93;;;21.90;44.80;;;;;;5088582;28;20450;-49
2021/10/28 17:03:52;;;;;;;5.50;5.00;;;21.90;45.30;;;;;;5075236;28;20858;-48
2021/10/28 17:06:20;;;;;;;5.30;4.90;;;21.80;45.50;;;;;;5086383;28;20456;-50
2021/10/28 17:08:47;;;;;;;5.70;5.20;;;21.70;45.60;;;;;;5086980;28;20478;-48
2021/10/28 17:11:13;;;;;;;6.60;6.00;;;21.70;45.80;;;;;;5093128;28;20533;-48
2021/10/28 17:13:42;;;;;;;5.80;5.30;;;21.60;45.90;;;;;;5090501;28;20435;-48
2021/10/28 17:16:08;;;;;;;5.80;5.33;;;21.60;46.00;;;;;;5079029;28;20443;-48
2021/10/28 17:18:35;;;;;;;6.10;5.60;;;21.50;46.20;;;;;;5092958;28;20425;-48
2021/10/28 17:21:06;;;;;;;6.80;6.10;;;21.50;46.30;;;;;;5088604;28;20453;-48
2021/10/28 17:23:41;;;;;;;5.80;5.30;;;21.40;46.40;;;;;;5090166;28;20469;-50
2021/10/28 17:26:10;;;;;;;5.63;5.13;;;21.40;46.60;;;;;;5070275;28;20521;-49
2021/10/28 17:28:37;;;;;;;6.43;5.83;;;21.30;46.70;;;;;;5093762;28;20636;-48
2021/10/28 17:31:05;;;;;;;7.23;5.20;;;21.20;46.70;;;;;;5088310;28;20502;-50
2021/10/28 17:33:34;;;;;;;6.80;6.20;;;21.20;46.90;;;;;;5102089;28;20568;-38
2021/10/28 17:36:02;;;;;;;7.17;6.47;;;21.10;46.90;;;;;;5089601;28;20851;-39
2021/10/28 17:38:28;;;;;;;7.87;7.07;;;21.10;46.60;;;;;;5113839;28;20437;-39
2021/10/28 17:40:54;;;;;;;9.90;8.87;;;20.90;46.10;;;;;;5116184;28;21058;-39
2021/10/28 17:43:22;;;;;;;10.00;8.77;;;20.60;45.30;;;;;;5099860;28;20578;-38
2021/10/28 17:45:55;;;;;;;8.97;8.17;;;20.30;45.20;;;;;;5118158;28;20544;-38
2021/10/28 17:48:21;;;;;;;9.60;8.60;;;20.00;45.20;;;;;;5117450;28;20465;-39
2021/10/28 17:50:46;;;;;;;8.30;7.60;;;19.70;45.40;;;;;;5117444;28;20430;-42
2021/10/28 17:53:12;;;;;;;9.27;8.47;;;19.40;45.60;;;;;;5118861;28;20201;-42
2021/10/28 17:55:39;;;;;;;11.87;8.60;;;19.10;45.80;;;;;;5116456;28;20235;-40
2021/10/28 18:00:50;;;;;;;10.20;8.90;;;18.60;46.20;;;;;;5065657;28;20543;-41
2021/10/28 18:03:20;;;;;;;10.03;9.03;;;18.30;46.40;;;;;;5098723;28;20491;-40
2021/10/28 18:05:46;;;;;;;10.30;9.30;;;18.10;46.50;;;;;;5099355;28;20600;-41
2021/10/28 18:08:14;;;;;;;9.13;8.23;;;17.90;46.70;;;;;;5108441;28;20534;-38
2021/10/28 18:10:39;;;;;;;9.40;8.60;;;17.80;46.80;;;;;;5114890;28;20417;-40
2021/10/28 18:13:07;;;;;;;9.77;8.87;;;17.60;47.00;;;;;;5099764;28;20426;-39
2021/10/28 18:15:33;;;;;;;9.77;8.80;;;17.40;47.10;;;;;;5117004;28;20188;-40
2021/10/28 18:18:01;;;;;;;11.07;9.90;;;17.30;47.30;;;;;;5115776;28;20535;-42
2021/10/28 18:20:29;;;;;;;10.93;9.90;;;17.20;47.50;;;;;;5106034;28;20430;-40
2021/10/28 18:22:55;;;;;;;9.87;8.87;;;17.00;47.60;;;;;;5108727;28;20468;-39
2021/10/28 18:25:24;;;;;;;11.70;10.60;;;16.90;47.70;;;;;;5107739;28;20493;-39
2021/10/28 18:27:56;;;;;;;12.80;10.43;;;16.80;47.80;;;;;;5090330;28;20885;-39
2021/10/28 18:30:24;;;;;;;12.80;11.50;;;16.70;48.00;;;;;;5091068;28;20560;-43
2021/10/28 18:32:51;;;;;;;13.47;11.70;;;16.50;48.10;;;;;;5109990;28;20437;-40
2021/10/28 18:35:17;;;;;;;14.10;12.80;;;16.40;48.20;;;;;;5111310;28;20493;-41
2021/10/28 18:37:44;;;;;;;16.93;13.20;;;16.30;48.30;;;;;;5110701;28;20433;-39
2021/10/28 18:40:12;;;;;;;15.97;12.93;;;16.20;48.40;;;;;;5110439;28;20410;-41
2021/10/28 18:42:38;;;;;;;14.40;12.73;;;16.10;48.60;;;;;;5108708;28;20433;-41
2021/10/28 18:45:07;;;;;;;13.63;12.00;;;16.00;48.70;;;;;;5108853;28;20464;-39
2021/10/28 18:47:34;;;;;;;14.57;12.50;;;15.90;48.80;;;;;;5090755;28;20477;-38
2021/10/28 18:50:02;;;;;;;13.77;12.30;;;15.80;48.90;;;;;;5090765;28;20469;-40
2021/10/28 18:52:30;;;;;;;12.10;10.80;;;15.70;49.00;;;;;;5090404;28;20855;-43
2021/10/28 18:54:59;;;;;;;13.73;12.20;;;15.60;49.10;;;;;;5089178;28;20403;-40
2021/10/28 18:57:25;;;;;;;12.00;10.70;;;15.50;49.20;;;;;;5108286;28;20422;-41
2021/10/28 18:59:51;;;;;;;12.80;10.60;;;15.50;49.40;;;;;;5108996;28;20831;-39
2021/10/28 19:02:18;;;;;;;14.07;12.03;;;15.30;49.40;;;;;;5109809;28;20430;-41
2021/10/28 19:04:44;;;;;;;14.67;13.17;;;15.30;49.60;;;;;;5109345;28;20413;-39
2021/10/28 19:07:11;;;;;;;18.37;15.63;;;15.20;49.70;;;;;;5111069;28;20435;-41
2021/10/28 19:09:37;;;;;;;18.40;14.87;;;15.10;49.80;;;;;;5107703;28;20208;-39
2021/10/28 19:12:05;;;;;;;21.77;16.67;;;15.00;49.90;;;;;;5112942;28;20436;-41
2021/10/28 19:14:34;;;;;;;21.77;15.73;;;14.90;50.00;;;;;;5092068;28;20843;-40
2021/10/28 19:17:00;;;;;;;20.07;16.90;;;14.90;50.20;;;;;;5107857;28;20437;-40
2021/10/28 19:19:26;;;;;;;22.67;15.93;;;14.80;50.30;;;;;;5109230;28;20434;-40
2021/10/28 19:21:51;;;;;;;21.73;18.37;;;14.70;50.50;;;;;;5111638;28;20610;-42
2021/10/28 19:24:20;;;;;;;18.97;16.47;;;14.70;50.60;;;;;;5110829;28;20216;-40
2021/10/28 19:26:49;;;;;;;18.33;16.20;;;14.60;50.70;;;;;;5076259;28;20460;-38
2021/10/28 19:29:18;;;;;;;22.30;15.03;;;14.50;50.90;;;;;;5097774;28;20453;-39
2021/10/28 19:31:53;;;;;;;18.47;16.07;;;14.40;51.00;;;;;;5092795;28;20435;-39
2021/10/28 19:34:19;;;;;;;17.33;15.07;;;14.40;51.20;;;;;;5114032;28;20416;-38
2021/10/28 19:37:36;;;;;;;18.93;14.50;;;14.30;51.40;;;;;;5111245;28;20492;-40
2021/10/28 19:39:52;;;;;;;17.67;15.27;;;14.30;51.60;;;;;;5096715;28;20491;-40
2021/10/28 19:42:35;;;;;;;15.63;13.93;;;14.20;51.70;;;;;;5109951;28;20426;-38
2021/10/28 19:47:29;;;;;;;18.23;14.10;;;14.00;52.00;;;;;;5081725;28;20444;-39
2021/10/28 19:49:55;;;;;;;18.40;15.80;;;14.00;52.30;;;;;;5105379;28;20806;-38
2021/10/28 19:52:21;;;;;;;17.17;15.37;;;13.90;52.50;;;;;;5110239;28;20193;-41
2021/10/28 19:54:48;;;;;;;17.30;14.90;;;13.80;52.60;;;;;;5107487;28;20424;-41
2021/10/28 19:57:23;;;;;;;19.03;15.80;;;13.80;52.90;;;;;;5112630;28;20185;-36
2021/10/28 20:00:07;;;;;;;21.60;17.17;;;13.70;53.00;;;;;;5094039;28;20418;-39
2021/10/28 20:02:51;;;;;;;20.23;18.00;;;13.70;53.30;;;;;;5111646;28;20852;-38
2021/10/28 20:08:27;;;;;;;23.10;19.57;;;13.60;53.80;;;;;;5109994;28;20434;-40
2021/10/28 20:13:58;;;;;;;25.13;19.70;;;13.40;54.40;;;;;;5094318;28;20478;-39
2021/10/28 20:21:52;;;;;;;9.83;8.80;;;13.60;74.40;;;;;;5109543;28;20989;-39
2021/10/28 20:24:20;;;;;;;9.07;8.20;;;14.00;87.30;;;;;;5115493;28;20533;-38
2021/10/28 20:26:46;;;;;;;15.83;9.27;;;14.40;90.20;;;;;;5104412;28;20195;-40
2021/10/28 20:29:12;;;;;;;9.00;8.10;;;14.70;90.40;;;;;;5114522;28;20465;-38
2021/10/28 20:31:40;;;;;;;8.67;7.77;;;15.00;90.20;;;;;;5109123;28;20219;-38
2021/10/28 20:34:27;;;;;;;9.10;8.20;;;15.30;89.80;;;;;;5107177;28;20904;-37
2021/10/28 20:37:08;;;;;;;8.10;7.00;;;15.50;89.00;;;;;;5106145;28;20464;-38
2021/10/28 20:39:40;;;;;;;9.73;8.07;;;15.70;88.20;;;;;;5106836;28;20427;-39
2021/10/28 20:42:07;;;;;;;8.20;7.37;;;15.80;87.30;;;;;;5106289;28;20425;-39
2021/10/28 20:44:33;;;;;;;9.53;8.53;;;15.90;86.80;;;;;;5107318;28;20528;-39
2021/10/28 20:46:59;;;;;;;8.83;7.50;;;16.00;86.20;;;;;;5108321;28;20424;-37
2021/10/28 20:49:25;;;;;;;9.57;8.67;;;16.10;85.60;;;;;;5110758;28;20820;-38
2021/10/28 20:51:52;;;;;;;11.30;8.30;;;16.10;85.10;;;;;;5112701;28;20418;-39
2021/10/28 20:54:21;;;;;;;8.60;7.80;;;16.20;84.80;;;;;;5101223;28;20196;-40
2021/10/28 20:56:47;;;;;;;8.57;7.23;;;16.20;84.50;;;;;;5082600;28;20414;-38
2021/10/28 20:59:13;;;;;;;8.50;7.07;;;16.20;84.20;;;;;;5108315;28;20440;-39
2021/10/28 21:01:39;;;;;;;8.13;7.30;;;16.30;84.00;;;;;;5107728;28;20859;-39
2021/10/28 21:04:05;;;;;;;8.07;7.27;;;16.30;83.40;;;;;;5107299;28;20444;-39
2021/10/28 21:06:31;;;;;;;8.40;7.63;;;16.30;82.80;;;;;;5107860;28;20417;-40
2021/10/28 21:08:58;;;;;;;9.43;8.23;;;16.40;82.50;;;;;;5107800;28;20466;-38
2021/10/28 21:11:25;;;;;;;7.97;7.17;;;16.40;82.10;;;;;;5108033;28;20442;-38
2021/10/28 21:13:52;;;;;;;7.50;6.90;;;16.40;81.60;;;;;;5105492;28;20544;-42
2021/10/28 21:16:18;;;;;;;8.43;6.90;;;16.40;81.10;;;;;;5106830;28;20489;-41
2021/10/28 21:18:44;;;;;;;7.93;7.17;;;16.50;80.90;;;;;;5108908;28;20514;-37
2021/10/28 21:21:10;;;;;;;7.87;7.07;;;16.50;80.60;;;;;;5102430;28;20781;-39
2021/10/28 21:23:36;;;;;;;8.50;7.67;;;16.50;80.30;;;;;;5117552;28;20516;-38
2021/10/28 21:26:03;;;;;;;6.87;6.27;;;16.50;80.00;;;;;;5117627;28;20482;-38
2021/10/28 21:28:29;;;;;;;7.40;6.70;;;16.50;79.80;;;;;;5118158;28;20211;-36
2021/10/28 21:30:55;;;;;;;6.80;6.20;;;16.60;79.80;;;;;;5117998;28;20472;-39
2021/10/28 21:33:21;;;;;;;7.07;6.37;;;16.60;79.70;;;;;;5117695;28;20715;-39
2021/10/28 21:35:47;;;;;;;7.73;6.60;;;16.60;79.50;;;;;;5099080;28;20896;-37
2021/10/28 21:38:13;;;;;;;8.70;6.97;;;16.60;79.40;;;;;;5117075;28;20513;-42
2021/10/28 21:40:39;;;;;;;7.90;7.10;;;16.60;79.30;;;;;;5117633;28;20173;-38
2021/10/28 21:43:05;;;;;;;8.50;6.50;;;16.60;79.20;;;;;;5116931;28;20426;-37
2021/10/28 21:45:31;;;;;;;6.70;6.10;;;16.60;79.20;;;;;;5098906;28;20509;-39
2021/10/28 21:47:58;;;;;;;9.53;6.60;;;16.60;79.20;;;;;;5117812;28;20176;-41
2021/10/28 21:50:24;;;;;;;8.33;7.53;;;16.60;79.20;;;;;;5118089;28;20417;-40
2021/10/28 21:52:54;;;;;;;8.40;7.60;;;16.50;75.70;;;;;;5118753;28;20590;-41